sensor_id;sensor_type;location;lat;lon;timestamp;pressure;altitude;pressure_sealevel;temperature;humidity
72975;BME280;61166;54.228;37.632;2022-07-18T00:01:41;99183.00;;;12.29;nan
72975;BME280;61166;54.228;37.632;2022-07-18T00:04:07;99186.91;;;12.27;nan
72975;BME280;61166;54.228;37.632;2022-07-18T00:06:32;99189.16;;;12.23;nan
72975;BME280;61166;54.228;37.632;2022-07-18T00:08:58;99191.44;;;12.19;nan
72975;BME280;61166;54.228;37.632;2022-07-18T00:11:23;99185.59;;;12.17;nan
72975;BME280;61166;54.228;37.632;2022-07-18T00:13:48;99187.84;;;12.14;nan
72975;BME280;61166;54.228;37.632;2022-07-18T00:16:17;99193.25;;;12.07;nan
72975;BME280;61166;54.228;37.632;2022-07-18T00:18:42;99187.59;;;12.04;nan
72975;BME280;61166;54.228;37.632;2022-07-18T00:21:08;99190.31;;;11.97;nan
72975;BME280;61166;54.228;37.632;2022-07-18T00:23:33;99200.63;;;11.99;nan
72975;BME280;61166;54.228;37.632;2022-07-18T00:25:59;99203.25;;;11.99;nan
72975;BME280;61166;54.228;37.632;2022-07-18T00:28:25;99203.91;;;11.94;nan
72975;BME280;61166;54.228;37.632;2022-07-18T00:30:50;99208.03;;;11.90;nan
72975;BME280;61166;54.228;37.632;2022-07-18T00:33:15;99208.53;;;11.80;nan
72975;BME280;61166;54.228;37.632;2022-07-18T00:35:41;99207.31;;;11.76;nan
72975;BME280;61166;54.228;37.632;2022-07-18T00:38:06;99210.97;;;11.75;nan
72975;BME280;61166;54.228;37.632;2022-07-18T00:40:32;99206.94;;;11.73;nan
72975;BME280;61166;54.228;37.632;2022-07-18T00:42:58;99202.09;;;11.70;nan
72975;BME280;61166;54.228;37.632;2022-07-18T00:45:23;99200.50;;;11.69;nan
72975;BME280;61166;54.228;37.632;2022-07-18T00:47:49;99214.31;;;11.64;nan
72975;BME280;61166;54.228;37.632;2022-07-18T00:50:18;99214.69;;;11.68;nan
72975;BME280;61166;54.228;37.632;2022-07-18T00:52:44;99219.38;;;11.66;nan
72975;BME280;61166;54.228;37.632;2022-07-18T00:55:09;99221.78;;;11.67;nan
72975;BME280;61166;54.228;37.632;2022-07-18T00:57:36;99218.78;;;11.64;nan
72975;BME280;61166;54.228;37.632;2022-07-18T01:00:05;99219.22;;;11.61;nan
72975;BME280;61166;54.228;37.632;2022-07-18T01:02:49;99210.13;;;11.56;nan
72975;BME280;61166;54.228;37.632;2022-07-18T01:05:14;99214.38;;;11.57;nan
72975;BME280;61166;54.228;37.632;2022-07-18T01:07:40;99216.00;;;11.58;nan
72975;BME280;61166;54.228;37.632;2022-07-18T01:10:06;99216.22;;;11.57;nan
72975;BME280;61166;54.228;37.632;2022-07-18T01:12:32;99221.84;;;11.61;nan
72975;BME280;61166;54.228;37.632;2022-07-18T01:14:58;99216.00;;;11.58;nan
72975;BME280;61166;54.228;37.632;2022-07-18T01:17:24;99218.84;;;11.57;nan
72975;BME280;61166;54.228;37.632;2022-07-18T01:19:50;99219.53;;;11.52;nan
72975;BME280;61166;54.228;37.632;2022-07-18T01:22:18;99224.19;;;11.50;nan
72975;BME280;61166;54.228;37.632;2022-07-18T01:24:43;99226.63;;;11.52;nan
72975;BME280;61166;54.228;37.632;2022-07-18T01:27:14;99227.84;;;11.49;nan
72975;BME280;61166;54.228;37.632;2022-07-18T01:29:39;99226.25;;;11.48;nan
72975;BME280;61166;54.228;37.632;2022-07-18T01:32:06;99235.75;;;11.49;nan
72975;BME280;61166;54.228;37.632;2022-07-18T01:34:32;99227.84;;;11.49;nan
72975;BME280;61166;54.228;37.632;2022-07-18T01:36:59;99229.47;;;11.50;nan
72975;BME280;61166;54.228;37.632;2022-07-18T01:39:24;99235.91;;;11.54;nan
72975;BME280;61166;54.228;37.632;2022-07-18T01:42:02;99224.78;;;11.52;nan
72975;BME280;61166;54.228;37.632;2022-07-18T01:44:29;99225.38;;;11.54;nan
72975;BME280;61166;54.228;37.632;2022-07-18T01:46:55;99218.84;;;11.57;nan
72975;BME280;61166;54.228;37.632;2022-07-18T01:49:22;99217.81;;;11.58;nan
72975;BME280;61166;54.228;37.632;2022-07-18T01:51:50;99216.38;;;11.62;nan
72975;BME280;61166;54.228;37.632;2022-07-18T01:54:19;99213.44;;;11.70;nan
72975;BME280;61166;54.228;37.632;2022-07-18T01:56:45;99211.63;;;11.71;nan
72975;BME280;61166;54.228;37.632;2022-07-18T01:59:10;99205.31;;;11.78;nan
72975;BME280;61166;54.228;37.632;2022-07-18T02:01:36;99204.06;;;11.81;nan
72975;BME280;61166;54.228;37.632;2022-07-18T02:04:01;99207.28;;;11.83;nan
72975;BME280;61166;54.228;37.632;2022-07-18T02:06:27;99201.94;;;11.89;nan
72975;BME280;61166;54.228;37.632;2022-07-18T02:08:52;99206.78;;;11.93;nan
72975;BME280;61166;54.228;37.632;2022-07-18T02:11:17;99204.81;;;12.54;nan
72975;BME280;61166;54.228;37.632;2022-07-18T02:13:43;99199.84;;;13.41;nan
72975;BME280;61166;54.228;37.632;2022-07-18T02:16:08;99199.16;;;13.34;nan
72975;BME280;61166;54.228;37.632;2022-07-18T02:18:34;99207.38;;;13.14;nan
72975;BME280;61166;54.228;37.632;2022-07-18T02:20:59;99208.16;;;13.03;nan
72975;BME280;61166;54.228;37.632;2022-07-18T02:23:26;99206.19;;;12.99;nan
72975;BME280;61166;54.228;37.632;2022-07-18T02:25:51;99207.25;;;13.09;nan
72975;BME280;61166;54.228;37.632;2022-07-18T02:28:17;99198.06;;;13.00;nan
72975;BME280;61166;54.228;37.632;2022-07-18T02:30:43;99198.94;;;13.47;nan
72975;BME280;61166;54.228;37.632;2022-07-18T02:33:08;99208.22;;;15.10;nan
72975;BME280;61166;54.228;37.632;2022-07-18T02:35:33;99189.47;;;16.76;nan
72975;BME280;61166;54.228;37.632;2022-07-18T02:37:59;99195.91;;;17.92;nan
72975;BME280;61166;54.228;37.632;2022-07-18T02:40:24;99195.09;;;17.49;nan
72975;BME280;61166;54.228;37.632;2022-07-18T02:42:50;99189.41;;;16.98;nan
72975;BME280;61166;54.228;37.632;2022-07-18T02:45:15;99201.66;;;17.31;nan
72975;BME280;61166;54.228;37.632;2022-07-18T02:47:41;99198.63;;;18.95;nan
72975;BME280;61166;54.228;37.632;2022-07-18T02:50:07;99197.03;;;20.29;nan
72975;BME280;61166;54.228;37.632;2022-07-18T02:52:32;99201.25;;;20.46;nan
72975;BME280;61166;54.228;37.632;2022-07-18T02:54:58;99211.69;;;19.37;nan
72975;BME280;61166;54.228;37.632;2022-07-18T02:57:25;99209.53;;;18.05;nan
72975;BME280;61166;54.228;37.632;2022-07-18T02:59:51;99219.75;;;17.39;nan
72975;BME280;61166;54.228;37.632;2022-07-18T03:02:16;99212.84;;;16.74;nan
72975;BME280;61166;54.228;37.632;2022-07-18T03:04:42;99209.91;;;16.27;nan
72975;BME280;61166;54.228;37.632;2022-07-18T03:07:07;99207.19;;;16.00;nan
72975;BME280;61166;54.228;37.632;2022-07-18T03:09:33;99215.28;;;15.72;nan
72975;BME280;61166;54.228;37.632;2022-07-18T03:11:58;99205.59;;;15.61;nan
72975;BME280;61166;54.228;37.632;2022-07-18T03:14:24;99199.78;;;15.64;nan
72975;BME280;61166;54.228;37.632;2022-07-18T03:16:50;99204.69;;;15.72;nan
72975;BME280;61166;54.228;37.632;2022-07-18T03:19:15;99197.84;;;15.76;nan
72975;BME280;61166;54.228;37.632;2022-07-18T03:21:41;99201.13;;;15.83;nan
72975;BME280;61166;54.228;37.632;2022-07-18T03:24:07;99202.66;;;15.79;nan
72975;BME280;61166;54.228;37.632;2022-07-18T03:26:32;99192.44;;;15.88;nan
72975;BME280;61166;54.228;37.632;2022-07-18T03:28:58;99195.47;;;15.96;nan
72975;BME280;61166;54.228;37.632;2022-07-18T03:31:23;99190.47;;;16.00;nan
72975;BME280;61166;54.228;37.632;2022-07-18T03:33:49;99189.25;;;16.07;nan
72975;BME280;61166;54.228;37.632;2022-07-18T03:36:14;99186.44;;;16.19;nan
72975;BME280;61166;54.228;37.632;2022-07-18T03:38:40;99191.63;;;16.31;nan
72975;BME280;61166;54.228;37.632;2022-07-18T03:41:09;99189.53;;;16.33;nan
72975;BME280;61166;54.228;37.632;2022-07-18T03:43:39;99192.78;;;16.40;nan
72975;BME280;61166;54.228;37.632;2022-07-18T03:46:06;99195.25;;;16.46;nan
72975;BME280;61166;54.228;37.632;2022-07-18T03:48:31;99198.72;;;16.47;nan
72975;BME280;61166;54.228;37.632;2022-07-18T03:50:57;99201.97;;;16.54;nan
72975;BME280;61166;54.228;37.632;2022-07-18T03:53:22;99202.28;;;16.58;nan
72975;BME280;61166;54.228;37.632;2022-07-18T03:55:47;99203.28;;;16.73;nan
72975;BME280;61166;54.228;37.632;2022-07-18T03:58:13;99210.28;;;16.84;nan
72975;BME280;61166;54.228;37.632;2022-07-18T04:00:38;99209.50;;;16.89;nan
72975;BME280;61166;54.228;37.632;2022-07-18T04:03:04;99203.84;;;16.80;nan
72975;BME280;61166;54.228;37.632;2022-07-18T04:05:29;99208.22;;;16.92;nan
72975;BME280;61166;54.228;37.632;2022-07-18T04:07:55;99213.88;;;17.00;nan
72975;BME280;61166;54.228;37.632;2022-07-18T04:10:20;99206.44;;;17.02;nan
72975;BME280;61166;54.228;37.632;2022-07-18T04:12:51;99209.44;;;17.11;nan
72975;BME280;61166;54.228;37.632;2022-07-18T04:15:18;99211.09;;;17.17;nan
72975;BME280;61166;54.228;37.632;2022-07-18T04:17:44;99210.59;;;17.20;nan
72975;BME280;61166;54.228;37.632;2022-07-18T04:20:10;99208.28;;;17.29;nan
72975;BME280;61166;54.228;37.632;2022-07-18T04:22:56;99212.84;;;17.38;nan
72975;BME280;61166;54.228;37.632;2022-07-18T04:25:24;99223.03;;;17.52;nan
72975;BME280;61166;54.228;37.632;2022-07-18T04:27:51;99218.91;;;17.66;nan
72975;BME280;61166;54.228;37.632;2022-07-18T04:30:19;99226.44;;;17.79;nan
72975;BME280;61166;54.228;37.632;2022-07-18T04:32:45;99227.56;;;17.93;nan
72975;BME280;61166;54.228;37.632;2022-07-18T04:35:10;99223.84;;;17.94;nan
72975;BME280;61166;54.228;37.632;2022-07-18T04:37:37;99223.34;;;17.97;nan
72975;BME280;61166;54.228;37.632;2022-07-18T04:40:03;99219.34;;;18.00;nan
72975;BME280;61166;54.228;37.632;2022-07-18T04:42:29;99224.78;;;18.20;nan
72975;BME280;61166;54.228;37.632;2022-07-18T04:44:56;99213.97;;;18.47;nan
72975;BME280;61166;54.228;37.632;2022-07-18T04:47:22;99212.44;;;18.66;nan
72975;BME280;61166;54.228;37.632;2022-07-18T04:49:47;99206.63;;;18.90;nan
72975;BME280;61166;54.228;37.632;2022-07-18T04:52:13;99200.75;;;19.28;nan
72975;BME280;61166;54.228;37.632;2022-07-18T04:54:38;99195.88;;;19.91;nan
72975;BME280;61166;54.228;37.632;2022-07-18T04:57:04;99191.38;;;21.24;nan
72975;BME280;61166;54.228;37.632;2022-07-18T04:59:29;99177.25;;;24.86;nan
72975;BME280;61166;54.228;37.632;2022-07-18T05:01:54;99177.47;;;28.82;nan
72975;BME280;61166;54.228;37.632;2022-07-18T05:04:20;99170.28;;;31.68;nan
72975;BME280;61166;54.228;37.632;2022-07-18T05:06:45;99172.69;;;33.86;nan
72975;BME280;61166;54.228;37.632;2022-07-18T05:09:10;99161.34;;;35.44;nan
72975;BME280;61166;54.228;37.632;2022-07-18T05:11:36;99163.19;;;36.39;nan
72975;BME280;61166;54.228;37.632;2022-07-18T05:14:01;99155.94;;;36.82;nan
72975;BME280;61166;54.228;37.632;2022-07-18T05:16:27;99159.56;;;37.40;nan
72975;BME280;61166;54.228;37.632;2022-07-18T05:18:52;99159.16;;;37.41;nan
72975;BME280;61166;54.228;37.632;2022-07-18T05:21:18;99159.16;;;37.70;nan
72975;BME280;61166;54.228;37.632;2022-07-18T05:23:43;99155.63;;;37.83;nan
72975;BME280;61166;54.228;37.632;2022-07-18T05:26:11;99148.94;;;37.95;nan
72975;BME280;61166;54.228;37.632;2022-07-18T05:28:36;99149.72;;;38.03;nan
72975;BME280;61166;54.228;37.632;2022-07-18T05:31:02;99148.13;;;36.95;nan
72975;BME280;61166;54.228;37.632;2022-07-18T05:33:27;99138.34;;;36.07;nan
72975;BME280;61166;54.228;37.632;2022-07-18T05:35:52;99135.28;;;35.57;nan
72975;BME280;61166;54.228;37.632;2022-07-18T05:38:18;99137.72;;;35.25;nan
72975;BME280;61166;54.228;37.632;2022-07-18T05:40:43;99134.47;;;35.09;nan
72975;BME280;61166;54.228;37.632;2022-07-18T05:43:09;99124.31;;;35.09;nan
72975;BME280;61166;54.228;37.632;2022-07-18T05:45:34;99128.00;;;34.87;nan
72975;BME280;61166;54.228;37.632;2022-07-18T05:48:00;99118.63;;;33.68;nan
72975;BME280;61166;54.228;37.632;2022-07-18T05:50:25;99112.13;;;34.66;nan
72975;BME280;61166;54.228;37.632;2022-07-18T05:52:51;99119.53;;;34.32;nan
72975;BME280;61166;54.228;37.632;2022-07-18T05:55:17;99119.75;;;33.41;nan
72975;BME280;61166;54.228;37.632;2022-07-18T05:57:43;99115.56;;;33.47;nan
72975;BME280;61166;54.228;37.632;2022-07-18T06:00:10;99114.19;;;34.76;nan
72975;BME280;61166;54.228;37.632;2022-07-18T06:02:36;99114.50;;;36.08;nan
72975;BME280;61166;54.228;37.632;2022-07-18T06:05:03;99114.06;;;37.07;nan
72975;BME280;61166;54.228;37.632;2022-07-18T06:07:29;99105.44;;;37.76;nan
72975;BME280;61166;54.228;37.632;2022-07-18T06:09:54;99113.25;;;38.82;nan
72975;BME280;61166;54.228;37.632;2022-07-18T06:12:20;99108.38;;;38.42;nan
72975;BME280;61166;54.228;37.632;2022-07-18T06:14:46;99113.78;;;38.67;nan
72975;BME280;61166;54.228;37.632;2022-07-18T06:17:11;99117.81;;;39.58;nan
72975;BME280;61166;54.228;37.632;2022-07-18T06:19:36;99116.19;;;40.02;nan
72975;BME280;61166;54.228;37.632;2022-07-18T06:22:02;99114.78;;;40.55;nan
72975;BME280;61166;54.228;37.632;2022-07-18T06:24:27;99111.09;;;38.49;nan
72975;BME280;61166;54.228;37.632;2022-07-18T06:26:53;99113.13;;;35.73;nan
72975;BME280;61166;54.228;37.632;2022-07-18T06:29:18;99106.44;;;35.19;nan
72975;BME280;61166;54.228;37.632;2022-07-18T06:31:44;99102.28;;;36.85;nan
72975;BME280;61166;54.228;37.632;2022-07-18T06:34:09;99110.56;;;37.49;nan
72975;BME280;61166;54.228;37.632;2022-07-18T06:36:34;99106.66;;;37.32;nan
72975;BME280;61166;54.228;37.632;2022-07-18T06:39:00;99107.03;;;37.30;nan
72975;BME280;61166;54.228;37.632;2022-07-18T06:41:27;99105.63;;;38.42;nan
72975;BME280;61166;54.228;37.632;2022-07-18T06:43:52;99108.47;;;38.20;nan
72975;BME280;61166;54.228;37.632;2022-07-18T06:46:18;99111.63;;;36.73;nan
72975;BME280;61166;54.228;37.632;2022-07-18T06:48:44;99103.28;;;36.27;nan
72975;BME280;61166;54.228;37.632;2022-07-18T06:51:10;99103.13;;;33.76;nan
72975;BME280;61166;54.228;37.632;2022-07-18T06:53:35;99106.75;;;33.57;nan
72975;BME280;61166;54.228;37.632;2022-07-18T06:56:01;99100.47;;;34.36;nan
72975;BME280;61166;54.228;37.632;2022-07-18T06:58:30;99100.50;;;35.58;nan
72975;BME280;61166;54.228;37.632;2022-07-18T07:00:57;99106.22;;;37.09;nan
72975;BME280;61166;54.228;37.632;2022-07-18T07:03:22;99098.09;;;39.22;nan
72975;BME280;61166;54.228;37.632;2022-07-18T07:05:48;99095.66;;;36.96;nan
72975;BME280;61166;54.228;37.632;2022-07-18T07:08:13;99091.88;;;34.71;nan
72975;BME280;61166;54.228;37.632;2022-07-18T07:10:39;99090.94;;;33.40;nan
72975;BME280;61166;54.228;37.632;2022-07-18T07:13:05;99091.78;;;32.21;nan
72975;BME280;61166;54.228;37.632;2022-07-18T07:15:31;99090.03;;;31.11;nan
72975;BME280;61166;54.228;37.632;2022-07-18T07:17:57;99083.50;;;30.84;nan
72975;BME280;61166;54.228;37.632;2022-07-18T07:20:22;99079.72;;;30.45;nan
72975;BME280;61166;54.228;37.632;2022-07-18T07:22:55;99082.75;;;30.16;nan
72975;BME280;61166;54.228;37.632;2022-07-18T07:25:23;99084.88;;;31.89;nan
72975;BME280;61166;54.228;37.632;2022-07-18T07:27:49;99074.44;;;35.27;nan
72975;BME280;61166;54.228;37.632;2022-07-18T07:30:15;99074.81;;;36.60;nan
72975;BME280;61166;54.228;37.632;2022-07-18T07:32:43;99081.16;;;37.10;nan
72975;BME280;61166;54.228;37.632;2022-07-18T07:35:10;99070.50;;;37.94;nan
72975;BME280;61166;54.228;37.632;2022-07-18T07:37:49;99070.38;;;38.95;nan
72975;BME280;61166;54.228;37.632;2022-07-18T07:40:15;99066.44;;;38.96;nan
72975;BME280;61166;54.228;37.632;2022-07-18T07:42:41;99067.28;;;40.13;nan
72975;BME280;61166;54.228;37.632;2022-07-18T07:45:07;99069.00;;;40.61;nan
72975;BME280;61166;54.228;37.632;2022-07-18T07:47:34;99063.19;;;39.12;nan
72975;BME280;61166;54.228;37.632;2022-07-18T07:50:00;99056.50;;;37.21;nan
72975;BME280;61166;54.228;37.632;2022-07-18T07:52:26;99057.25;;;37.53;nan
72975;BME280;61166;54.228;37.632;2022-07-18T07:54:53;99050.38;;;38.25;nan
72975;BME280;61166;54.228;37.632;2022-07-18T07:57:19;99043.56;;;39.51;nan
72975;BME280;61166;54.228;37.632;2022-07-18T07:59:44;99041.31;;;39.39;nan
72975;BME280;61166;54.228;37.632;2022-07-18T08:02:10;99049.09;;;40.19;nan
72975;BME280;61166;54.228;37.632;2022-07-18T08:04:36;99040.75;;;39.58;nan
72975;BME280;61166;54.228;37.632;2022-07-18T08:07:01;99031.25;;;39.63;nan
72975;BME280;61166;54.228;37.632;2022-07-18T08:09:27;99037.63;;;40.51;nan
72975;BME280;61166;54.228;37.632;2022-07-18T08:11:52;99029.91;;;38.92;nan
72975;BME280;61166;54.228;37.632;2022-07-18T08:14:18;99038.66;;;36.12;nan
72975;BME280;61166;54.228;37.632;2022-07-18T08:16:43;99031.09;;;35.22;nan
72975;BME280;61166;54.228;37.632;2022-07-18T08:19:09;99033.41;;;33.78;nan
72975;BME280;61166;54.228;37.632;2022-07-18T08:21:34;99035.63;;;33.69;nan
72975;BME280;61166;54.228;37.632;2022-07-18T08:24:00;99037.06;;;32.45;nan
72975;BME280;61166;54.228;37.632;2022-07-18T08:26:25;99043.31;;;31.22;nan
72975;BME280;61166;54.228;37.632;2022-07-18T08:28:51;99036.88;;;30.11;nan
72975;BME280;61166;54.228;37.632;2022-07-18T08:31:16;99027.72;;;29.27;nan
72975;BME280;61166;54.228;37.632;2022-07-18T08:33:46;99025.84;;;28.70;nan
72975;BME280;61166;54.228;37.632;2022-07-18T08:36:12;99031.19;;;28.04;nan
72975;BME280;61166;54.228;37.632;2022-07-18T08:38:38;99024.72;;;27.46;nan
72975;BME280;61166;54.228;37.632;2022-07-18T08:41:04;99028.16;;;26.96;nan
72975;BME280;61166;54.228;37.632;2022-07-18T08:43:29;99028.41;;;26.56;nan
72975;BME280;61166;54.228;37.632;2022-07-18T08:46:05;99023.16;;;26.17;nan
72975;BME280;61166;54.228;37.632;2022-07-18T08:48:32;99024.31;;;25.98;nan
72975;BME280;61166;54.228;37.632;2022-07-18T08:50:58;99024.91;;;25.78;nan
72975;BME280;61166;54.228;37.632;2022-07-18T08:53:24;99021.50;;;25.55;nan
72975;BME280;61166;54.228;37.632;2022-07-18T08:55:50;99011.03;;;25.37;nan
72975;BME280;61166;54.228;37.632;2022-07-18T08:58:15;99021.38;;;25.12;nan
72975;BME280;61166;54.228;37.632;2022-07-18T09:00:46;99014.94;;;24.91;nan
72975;BME280;61166;54.228;37.632;2022-07-18T09:03:12;99022.81;;;24.79;nan
72975;BME280;61166;54.228;37.632;2022-07-18T09:05:38;99020.50;;;24.63;nan
72975;BME280;61166;54.228;37.632;2022-07-18T09:08:18;99028.31;;;24.74;nan
72975;BME280;61166;54.228;37.632;2022-07-18T09:10:51;99023.91;;;24.78;nan
72975;BME280;61166;54.228;37.632;2022-07-18T09:13:25;99018.97;;;24.49;nan
72975;BME280;61166;54.228;37.632;2022-07-18T09:18:42;99034.78;;;23.56;nan
72975;BME280;61166;54.228;37.632;2022-07-18T09:23:37;99029.59;;;23.18;nan
72975;BME280;61166;54.228;37.632;2022-07-18T09:26:03;99035.16;;;23.08;nan
72975;BME280;61166;54.228;37.632;2022-07-18T09:28:53;99035.25;;;23.03;nan
72975;BME280;61166;54.228;37.632;2022-07-18T09:31:23;99038.31;;;22.96;nan
72975;BME280;61166;54.228;37.632;2022-07-18T09:33:59;99037.13;;;22.89;nan
72975;BME280;61166;54.228;37.632;2022-07-18T09:36:26;99044.06;;;22.90;nan
72975;BME280;61166;54.228;37.632;2022-07-18T09:38:52;99033.47;;;22.66;nan
72975;BME280;61166;54.228;37.632;2022-07-18T09:41:25;99036.84;;;22.71;nan
72975;BME280;61166;54.228;37.632;2022-07-18T09:43:52;99029.97;;;22.65;nan
72975;BME280;61166;54.228;37.632;2022-07-18T09:46:17;99030.06;;;22.60;nan
72975;BME280;61166;54.228;37.632;2022-07-18T09:48:43;99030.56;;;22.49;nan
72975;BME280;61166;54.228;37.632;2022-07-18T09:51:08;99032.22;;;22.45;nan
72975;BME280;61166;54.228;37.632;2022-07-18T09:53:39;99037.59;;;22.58;nan
72975;BME280;61166;54.228;37.632;2022-07-18T09:56:23;99026.03;;;22.77;nan
72975;BME280;61166;54.228;37.632;2022-07-18T09:58:55;99017.97;;;23.09;nan
72975;BME280;61166;54.228;37.632;2022-07-18T10:01:22;99012.19;;;23.29;nan
72975;BME280;61166;54.228;37.632;2022-07-18T10:03:48;98999.47;;;23.62;nan
72975;BME280;61166;54.228;37.632;2022-07-18T10:06:15;98993.53;;;23.88;nan
72975;BME280;61166;54.228;37.632;2022-07-18T10:08:41;98997.19;;;24.28;nan
72975;BME280;61166;54.228;37.632;2022-07-18T10:11:07;98993.75;;;24.36;nan
72975;BME280;61166;54.228;37.632;2022-07-18T10:13:35;98986.16;;;24.60;nan
72975;BME280;61166;54.228;37.632;2022-07-18T10:16:00;98976.06;;;24.97;nan
72975;BME280;61166;54.228;37.632;2022-07-18T10:18:28;98975.16;;;25.10;nan
72975;BME280;61166;54.228;37.632;2022-07-18T10:20:58;98970.19;;;25.52;nan
72975;BME280;61166;54.228;37.632;2022-07-18T10:23:26;98978.31;;;25.69;nan
72975;BME280;61166;54.228;37.632;2022-07-18T10:26:31;98976.06;;;26.23;nan
72975;BME280;61166;54.228;37.632;2022-07-18T10:31:36;98964.31;;;27.00;nan
72975;BME280;61166;54.228;37.632;2022-07-18T10:36:29;98955.28;;;26.96;nan
72975;BME280;61166;54.228;37.632;2022-07-18T10:39:14;98955.19;;;27.13;nan
72975;BME280;61166;54.228;37.632;2022-07-18T10:58:14;98920.44;;;25.58;nan
72975;BME280;61166;54.228;37.632;2022-07-18T11:00:37;98924.88;;;25.54;nan
72975;BME280;61166;54.228;37.632;2022-07-18T11:03:07;98911.03;;;25.04;nan
72975;BME280;61166;54.228;37.632;2022-07-18T11:05:35;98909.84;;;24.48;nan
72975;BME280;61166;54.228;37.632;2022-07-18T11:18:25;98916.31;;;23.21;nan
72975;BME280;61166;54.228;37.632;2022-07-18T11:20:51;98910.53;;;23.14;nan
72975;BME280;61166;54.228;37.632;2022-07-18T11:23:22;98909.09;;;23.08;nan
72975;BME280;61166;54.228;37.632;2022-07-18T11:25:50;98906.38;;;23.22;nan
72975;BME280;61166;54.228;37.632;2022-07-18T11:28:17;98909.31;;;23.34;nan
72975;BME280;61166;54.228;37.632;2022-07-18T11:30:44;98909.13;;;23.30;nan
72975;BME280;61166;54.228;37.632;2022-07-18T11:33:25;98900.59;;;23.28;nan
72975;BME280;61166;54.228;37.632;2022-07-18T11:35:51;98910.91;;;23.35;nan
72975;BME280;61166;54.228;37.632;2022-07-18T11:38:17;98898.25;;;23.63;nan
72975;BME280;61166;54.228;37.632;2022-07-18T11:40:50;98897.56;;;23.80;nan
72975;BME280;61166;54.228;37.632;2022-07-18T11:43:23;98905.88;;;24.14;nan
72975;BME280;61166;54.228;37.632;2022-07-18T11:46:08;98897.00;;;24.36;nan
72975;BME280;61166;54.228;37.632;2022-07-18T11:48:35;98902.19;;;24.63;nan
72975;BME280;61166;54.228;37.632;2022-07-18T11:51:02;98905.06;;;24.67;nan
72975;BME280;61166;54.228;37.632;2022-07-18T11:53:33;98891.91;;;24.34;nan
72975;BME280;61166;54.228;37.632;2022-07-18T11:56:03;98900.06;;;24.21;nan
72975;BME280;61166;54.228;37.632;2022-07-18T11:58:35;98904.09;;;24.10;nan
72975;BME280;61166;54.228;37.632;2022-07-18T12:01:01;98905.81;;;24.28;nan
72975;BME280;61166;54.228;37.632;2022-07-18T12:03:26;98895.31;;;24.49;nan
72975;BME280;61166;54.228;37.632;2022-07-18T12:05:53;98895.91;;;24.77;nan
72975;BME280;61166;54.228;37.632;2022-07-18T12:08:28;98897.56;;;25.04;nan
72975;BME280;61166;54.228;37.632;2022-07-18T12:16:38;98902.25;;;25.72;nan
72975;BME280;61166;54.228;37.632;2022-07-18T12:19:09;98909.53;;;25.89;nan
72975;BME280;61166;54.228;37.632;2022-07-18T12:24:35;98897.63;;;25.47;nan
72975;BME280;61166;54.228;37.632;2022-07-18T12:27:18;98910.31;;;25.55;nan
72975;BME280;61166;54.228;37.632;2022-07-18T12:35:36;98900.56;;;26.40;nan
72975;BME280;61166;54.228;37.632;2022-07-18T12:40:46;98898.94;;;26.56;nan
72975;BME280;61166;54.228;37.632;2022-07-18T12:45:47;98893.19;;;26.96;nan
72975;BME280;61166;54.228;37.632;2022-07-18T12:48:13;98891.31;;;26.88;nan
72975;BME280;61166;54.228;37.632;2022-07-18T12:50:40;98898.28;;;26.89;nan
72975;BME280;61166;54.228;37.632;2022-07-18T12:53:06;98900.59;;;26.70;nan
72975;BME280;61166;54.228;37.632;2022-07-18T12:55:31;98900.88;;;26.77;nan
72975;BME280;61166;54.228;37.632;2022-07-18T12:57:57;98909.66;;;26.65;nan
72975;BME280;61166;54.228;37.632;2022-07-18T13:00:22;98896.25;;;26.56;nan
72975;BME280;61166;54.228;37.632;2022-07-18T13:02:48;98901.09;;;26.08;nan
72975;BME280;61166;54.228;37.632;2022-07-18T13:05:14;98906.19;;;26.00;nan
72975;BME280;61166;54.228;37.632;2022-07-18T13:07:39;98907.78;;;25.93;nan
72975;BME280;61166;54.228;37.632;2022-07-18T13:10:05;98894.78;;;25.34;nan
72975;BME280;61166;54.228;37.632;2022-07-18T13:12:31;98907.13;;;25.27;nan
72975;BME280;61166;54.228;37.632;2022-07-18T13:14:56;98915.63;;;25.03;nan
72975;BME280;61166;54.228;37.632;2022-07-18T13:17:22;98920.28;;;24.80;nan
72975;BME280;61166;54.228;37.632;2022-07-18T13:19:47;98915.44;;;24.60;nan
72975;BME280;61166;54.228;37.632;2022-07-18T13:22:14;98923.47;;;23.98;nan
72975;BME280;61166;54.228;37.632;2022-07-18T13:24:40;98917.84;;;23.50;nan
72975;BME280;61166;54.228;37.632;2022-07-18T13:27:05;98919.53;;;23.10;nan
72975;BME280;61166;54.228;37.632;2022-07-18T13:29:31;98927.94;;;22.76;nan
72975;BME280;61166;54.228;37.632;2022-07-18T13:31:56;98927.00;;;22.39;nan
72975;BME280;61166;54.228;37.632;2022-07-18T13:34:23;98928.09;;;22.05;nan
72975;BME280;61166;54.228;37.632;2022-07-18T13:36:50;98923.66;;;21.96;nan
72975;BME280;61166;54.228;37.632;2022-07-18T13:39:16;98933.19;;;21.88;nan
72975;BME280;61166;54.228;37.632;2022-07-18T13:41:41;98932.75;;;21.81;nan
72975;BME280;61166;54.228;37.632;2022-07-18T13:44:07;98931.94;;;21.81;nan
72975;BME280;61166;54.228;37.632;2022-07-18T13:46:32;98948.97;;;21.71;nan
72975;BME280;61166;54.228;37.632;2022-07-18T13:48:58;98955.53;;;21.60;nan
72975;BME280;61166;54.228;37.632;2022-07-18T13:51:23;98967.31;;;21.59;nan
72975;BME280;61166;54.228;37.632;2022-07-18T13:53:49;98968.19;;;21.54;nan
72975;BME280;61166;54.228;37.632;2022-07-18T13:56:14;98973.03;;;21.52;nan
72975;BME280;61166;54.228;37.632;2022-07-18T13:58:40;98974.00;;;21.37;nan
72975;BME280;61166;54.228;37.632;2022-07-18T14:01:05;98973.53;;;21.35;nan
72975;BME280;61166;54.228;37.632;2022-07-18T14:03:31;98974.22;;;21.22;nan
72975;BME280;61166;54.228;37.632;2022-07-18T14:05:56;98982.38;;;21.07;nan